PWSweather.com
Personal Weather Stations
Station Observations
KVAGLENALL
West Henrico, Glen Allen, VA 23060-6503

West HenricoGlen Allen, VA 23060-6503

Lat: 37.6554, Lon: -77.5693

Elevation: 273

Station Type: Davis Vantage Pro II

www.glenallenweather.com

High Low Average
Temperature 50.2°F10.1°C 29.7°F-1.3°C 40.4°F4.7°C
Dew Point 46.1°F7.8°C 22.4°F-5.3°C 28.8°F-1.8°C
Winds 10.0 mph 16.1 kmh Calm Calm 5.0 mph SE8.0 kmh SE
Wind Gusts 18.2 mph29.3 kmh 1.0 mph1.6 kmh 9.0 mph14.5 kmh
Humidity 86% 43% 65%
Pressure 30.38 in1028.8 mb 30.08 in1018.6 mb -
Precipitation 0.00 in0.0 mm - -
Hour Temp Dew Point Humidity Winds Wind Gusts Pressure Precip Precip Rate Daily Precip Total
12:30 AM 50.2°F10.1°C 46.1°F7.8°C 86% 5.0 mph NNE8.0 kmh NNE 7.1 mph11.4 kmh 30.08 in1018.6 mb 0.00 in0.0 mm 0.00 in0.0 mm 0.00 in0.0 mm
01:30 AM 48.5°F9.2°C 44.6°F7.0°C 86% 4.0 mph N6.4 kmh N 10.1 mph16.3 kmh 30.08 in1018.6 mb 0.00 in0.0 mm 0.00 in0.0 mm 0.00 in0.0 mm
02:30 AM 45.9°F7.7°C 40.1°F4.5°C 80% 6.0 mph N9.7 kmh N 10.1 mph16.3 kmh 30.09 in1019.0 mb 0.00 in0.0 mm 0.00 in0.0 mm 0.00 in0.0 mm
03:30 AM 44.7°F7.1°C 38.6°F3.7°C 79% 10.0 mph NE16.1 kmh NE 11.1 mph17.9 kmh 30.10 in1019.3 mb 0.00 in0.0 mm 0.00 in0.0 mm 0.00 in0.0 mm
04:30 AM 42.8°F6.0°C 36.8°F2.7°C 79% 9.0 mph NNE14.5 kmh NNE 13.1 mph21.1 kmh 30.12 in1020.0 mb 0.00 in0.0 mm 0.00 in0.0 mm 0.00 in0.0 mm
05:30 AM 40.6°F4.8°C 33.6°F0.9°C 76% 10.0 mph NNE16.1 kmh NNE 11.1 mph17.9 kmh 30.15 in1021.0 mb 0.00 in0.0 mm 0.00 in0.0 mm 0.00 in0.0 mm
06:30 AM 38.7°F3.7°C 32.1°F0.1°C 77% 4.0 mph NNW6.4 kmh NNW 9.1 mph14.6 kmh 30.18 in1022.0 mb 0.00 in0.0 mm 0.00 in0.0 mm 0.00 in0.0 mm
07:00 AM 38.3°F3.5°C 30.7°F-0.7°C 74% 8.0 mph NE12.9 kmh NE 14.1 mph22.7 kmh 30.19 in1022.4 mb 0.00 in0.0 mm 0.00 in0.0 mm 0.00 in0.0 mm
08:00 AM 40.3°F4.6°C 29.9°F-1.2°C 66% 6.0 mph N9.7 kmh N 13.1 mph21.1 kmh 30.23 in1023.7 mb 0.00 in0.0 mm 0.00 in0.0 mm 0.00 in0.0 mm
09:00 AM 41.2°F5.1°C 27.1°F-2.7°C 57% 3.0 mph NNE4.8 kmh NNE 17.2 mph27.7 kmh 30.27 in1025.1 mb 0.00 in0.0 mm 0.00 in0.0 mm 0.00 in0.0 mm
10:00 AM 43.2°F6.2°C 24.4°F-4.2°C 47% 9.0 mph NNE14.5 kmh NNE 12.1 mph19.5 kmh 30.28 in1025.4 mb 0.00 in0.0 mm 0.00 in0.0 mm 0.00 in0.0 mm
11:00 AM 43.7°F6.5°C 23.8°F-4.6°C 45% 9.0 mph NW14.5 kmh NW 18.2 mph29.3 kmh 30.28 in1025.4 mb 0.00 in0.0 mm 0.00 in0.0 mm 0.00 in0.0 mm
11:30 AM 44.7°F7.1°C 23.6°F-4.7°C 43% 9.0 mph N14.5 kmh N 10.1 mph16.3 kmh 30.27 in1025.1 mb 0.00 in0.0 mm 0.00 in0.0 mm 0.00 in0.0 mm
12:30 PM 45.4°F7.4°C 25.3°F-3.7°C 45% 5.0 mph NE8.0 kmh NE 15.1 mph24.3 kmh 30.26 in1024.7 mb 0.00 in0.0 mm 0.00 in0.0 mm 0.00 in0.0 mm
01:30 PM 45.7°F7.6°C 25.6°F-3.6°C 45% 3.0 mph NW4.8 kmh NW 12.1 mph19.5 kmh 30.25 in1024.4 mb 0.00 in0.0 mm 0.00 in0.0 mm 0.00 in0.0 mm
02:30 PM 44.5°F6.9°C 25.0°F-3.9°C 46% 7.0 mph NNE11.3 kmh NNE 13.1 mph21.1 kmh 30.25 in1024.4 mb 0.00 in0.0 mm 0.00 in0.0 mm 0.00 in0.0 mm
03:30 PM 42.2°F5.7°C 23.4°F-4.8°C 47% 10.0 mph N16.1 kmh N 10.1 mph16.3 kmh 30.27 in1025.1 mb 0.00 in0.0 mm 0.00 in0.0 mm 0.00 in0.0 mm
04:30 PM 40.0°F4.4°C 22.4°F-5.3°C 49% 9.0 mph N14.5 kmh N 12.1 mph19.5 kmh 30.29 in1025.7 mb 0.00 in0.0 mm 0.00 in0.0 mm 0.00 in0.0 mm
05:00 PM 38.3°F3.5°C 24.0°F-4.4°C 56% 2.0 mph N3.2 kmh N 3.0 mph4.8 kmh 30.30 in1026.1 mb 0.00 in0.0 mm 0.00 in0.0 mm 0.00 in0.0 mm
06:00 PM 34.3°F1.3°C 25.2°F-3.8°C 69% 1.0 mph NNE1.6 kmh NNE 1.0 mph1.6 kmh 30.33 in1027.1 mb 0.00 in0.0 mm 0.00 in0.0 mm 0.00 in0.0 mm
07:00 PM 32.6°F0.3°C 24.2°F-4.3°C 71% 1.0 mph N1.6 kmh N 3.0 mph4.8 kmh 30.35 in1027.8 mb 0.00 in0.0 mm 0.00 in0.0 mm 0.00 in0.0 mm
08:00 PM 32.5°F0.3°C 23.8°F-4.6°C 70% 3.0 mph N4.8 kmh N 3.0 mph4.8 kmh 30.36 in1028.1 mb 0.00 in0.0 mm 0.00 in0.0 mm 0.00 in0.0 mm
09:00 PM 29.7°F-1.3°C 23.3°F-4.8°C 77% Calm Calm 1.0 mph1.6 kmh 30.38 in1028.8 mb 0.00 in0.0 mm 0.00 in0.0 mm 0.00 in0.0 mm
10:00 PM 30.6°F-0.8°C 22.9°F-5.1°C 73% 3.0 mph N4.8 kmh N 4.0 mph6.4 kmh 30.37 in1028.4 mb 0.00 in0.0 mm 0.00 in0.0 mm 0.00 in0.0 mm
11:00 PM 30.4°F-0.9°C 22.8°F-5.1°C 73% 1.0 mph N1.6 kmh N 3.0 mph4.8 kmh 30.36 in1028.1 mb 0.00 in0.0 mm 0.00 in0.0 mm 0.00 in0.0 mm